Howes, SD (57748)

12:59 PM MDT on July 11, 2014 (GMT -0600)
Philip (KPHP) Elev 2208 ft | 44.05 °N, 101.60 °W | Change Station

Current weather conditions updated 4 minutes ago

Clear
Clear
90 °F
Feels Like 92 °F
N
12
Wind Variable Wind from ENE

Today is forecast to be nearly the same temperature as yesterday. Rain with a few rumbles of thunder tonight.

Today
High -- | Low -- °F
--% Chance of Precip.
Yesterday
High -- | Low -- °F
Precip. -- in
5:13 AM 8:33 PM
Waxing Gibbous, 99% visible
Pressure 29.91 in
Visibility 10.0 miles
Clouds Clear
Heat Index 92 °F
Dew Point 65 °F
Humidity 43%
Rainfall 0.00 in
Snow Depth Not available.
UV 11 out of 12
Pollen 4.70 out of 12
Air Quality Not available.
Flu Activity Sporadic
METAR KPHP 111855Z AUTO 06010KT 10SM CLR 32/18 A2998 RMK AO2 SLP128 T03220183

More Conditions Fewer Conditions

Pressure 29.91 in
Visibility 10.0 miles
Clouds Clear
Heat Index 92 °F
Dew Point 65 °F
Humidity 43%
Rainfall 0.00 in
Snow Depth Not available.
UV 11 out of 12
Pollen 4.70 out of 12
Air Quality Not available.
Flu Activity Sporadic
METAR KPHP 111855Z AUTO 06010KT 10SM CLR 32/18 A2998 RMK AO2 SLP128 T03220183

More Conditions Fewer Conditions

10-Day Weather Forecast

Almanac

Astronomy

Jul. 11, 2014 Rise Set
Actual Time 5:13 AM MDT 8:33 PM MDT
Civil Twilight 4:37 AM MDT 9:09 PM MDT
Nautical Twilight 3:51 AM MDT 9:55 PM MDT
Astronomical Twilight 2:52 AM MDT 10:53 PM MDT
Moon 7:42 PM MDT 4:30 AM MDT
Length of Visible Light 16h 31m
Length of Day
15h 19m
Tomorrow will be 1m 25s shorter.
Waxing Gibbous, 99% of the Moon is Illuminated
Today
Waxing Gibbous
Jul 12
Full
Jul 18
Last Quarter
Jul 26
New
Aug 3
First Quarter

Today's Extremes

State Highs State Lows

Community

WunderPhotos

Upload Photos

1,732,543 photos uploaded!

Nearby

Snow Depth

Station Depth Elevation
North Rapid Creek 0 in 6130 ft

Earthquake Activity

City Distance Mag. Time & Date
No recent earthquake activity has been reported nearby.
Minimum magnitude displayed is 2.5.

Coastal Water Temperatures

Place Temperature
No Stations Reporting

Nearby Weather Stations

There are no personal weather stations in this area.